Strona główna
METAR-TAF:

METAR-TAF

Lotnisko :

Port lotniczy Marka

Amman, Jordania

Szerokość geograficzna: 31-59N, Długość geograficzna: 035-59E, wysokość: 767 m

Aktualna obserwacja pogody

Raport powstał 38 minut temu, godzina 12:00 UTC
Wiatr 5 kt od północ
Temperatura 27°C
Wilgotność 37%
Ciśnienie 1016 hPa
Widzialność: 6000 m

METAR: OJAM 161200Z 35005KT 6000 NSC 27/11 Q1016 NOSIG

czas: 15:38 (12:38 UTC)

Prognoza

Raport powstał 1 godzina i 38 minut temu, godzina 11:00 UTC
Prognoza ważna od 16 godzina 12 UTC do 17 godzina 18 UTC
Wiatr 8 kt od północno-północny zachód
Widzialność: 5000 m
zmętnienie
Przejściowo
od 17 godzina 01 UTC do 17 godzina 06 UTC
Wiatr 2 kt z kierunków zmiennych
Widzialność: 3000 m
zamglenie

TAF: OJAM 161100Z 1612/1718 33008KT 5000 HZ NSC TEMPO 1701/1706 VRB02KT 3000 BR

Obserwacja i prognoza pogody dla ponad 4000 lotnisk (raport METAR i TAF).

Dostępne stacje oznaczono żółtymi i czerwonymi punktami na mapie.

Najedź kursorem aby zobaczyć nazwę stacji.

Kliknij aby zobaczyć obserwacje i prognozy pogody.

Aby zmienić mapę: kliknij na zielony przycisk z czarnym krzyżykiem, aby powiększyć; na zielony przycisk z myślnikiem, aby pomniejszyć; na zielone strzałki, aby przejść do map sąsiednich.


METAR-TAF: